AirNav   Air Wisconsin Up To $57,000 Bonus
 
 448 users online  

22CO Flying E Airport
Brighton, Colorado, USA

GOING TO BRIGHTON?


FAA INFORMATION EFFECTIVE 26 JANUARY 2023

Location

FAA Identifier: 22CO
Lat/Long: 39-57-29.0000N 104-29-08.0000W
39-57.483333N 104-29.133333W
39.9580556,-104.4855556
(estimated)
Elevation: 5100 ft. / 1554 m
From city: 17 miles W of BRIGHTON, CO
Time zone: UTC -7 (UTC -6 during Daylight Saving Time)
Zip code: 80643

Airport Operations

Airport use: Private use. Permission required prior to landing
Activation date: 10/2004
Control tower: no
ARTCC: DENVER CENTER
FSS: DENVER FLIGHT SERVICE STATION
Attendance: UNATNDD
Wind indicator: yes
Segmented circle: no

Airport Communications

WX ASOS at DEN (10 nm SW): PHONE 303-342-1920
WX AWOS-3 at CFO (11 nm S): 119.025 (303-261-9104)

Nearby radio navigation aids

VOR radial/distance  VOR name  Freq  Var
DVVr051/7.4MILE HIGH VORTAC114.7008E
DENr035/11.9DENVER VOR/DME117.9008E
FQFr010/17.2FALCON VORTAC116.3011E
BJCr074/30.2JEFFCO VOR/DME115.4011E
GLLr162/32.9GILL VOR/DME114.2013E

Airport Services

Runway Information

Runway 14/32

Dimensions: 2800 x 50 ft. / 853 x 15 m
Surface: turf/dirt
RUNWAY 14  RUNWAY 32
Traffic pattern: leftleft
Obstructions: 30 ft. pline, 200 ft. from runway150 ft. pline, marked, 2500 ft. from runway

Airport Ownership and Management from official FAA records

Ownership: Privately-owned
Owner: HAROLD ENANDER
PO BOX 398
BRIGHTON, CO 80601
Phone 303-659-6574
Manager: HAROLD ENANDER
PO BOX 398
BRIGHTON, CO 80601
Phone 303-659-6574

Airport Operational Statistics

Aircraft based on the field: 1
Single engine airplanes: 1
    

Additional Remarks

FOR CD CTC DENVER APCH AT 303-342-1916.

Instrument Procedures

There are no published instrument procedures at 22CO.

Some nearby airports with instrument procedures:

KDEN - Denver International Airport (10 nm SW)
KCFO - Colorado Air and Space Port Airport (11 nm S)
KBKF - Buckley Space Force Base (20 nm SW)
KEIK - Erie Municipal Airport (26 nm W)
KAPA - Centennial Airport (29 nm SW)
 
Loc | Ops | Rwys | IFR | FBO | Links
Com | Nav | Svcs | Stats | Notes

AirBoss

 
Aerial photo
No photo
 
Sectional chart

 
Airport distance calculator
Flying to Flying E Airport? Find the distance to fly.

From to 22CO

Sunrise and sunset
Times for 04-Feb-2023
 Local
(UTC-7)
 Zulu
(UTC)
Morning civil twilight06:3613:36
Sunrise07:0414:04
Sunset17:1900:19
Evening civil twilight17:4800:48

Current date and time
Zulu (UTC)  04-Feb-2023 10:23:50
Local (UTC-7)  04-Feb-2023 03:23:50
 
METAR
KDEN 
11nm SW 
040953Z 23007KT 10SM BKN220 03/M09 A3002 RMK AO2 SLP158 T00281094
KCFO 
11nm S 
040955Z AUTO 22012KT 10SM CLR 04/M11 A3003 RMK AO2 T00411113
KBKF 
19nm SW 
040958Z 20006KT 10SM FEW130 BKN220 03/M13 A3002 RMK AO2A SLP144 T00281127
TAF
KDEN 
11nm SW 
040534Z 0406/0512 21011KT P6SM SCT100 BKN200 FM041600 25009KT P6SM FEW100 BKN200 FM050200 20010KT P6SM FEW100 BKN200
KBKF 
19nm SW 
040100Z 0401/0507 VRB06KT 9999 SKC 510013 QNH3006INS BECMG 0415/0416 VRB06KT 9999 FEW150 FEW210 SCT280 530054 QNH3007INS TX04/0422Z TNM02/0502Z
NOTAMs
Click for the latest NOTAMs
NOTAMs are issued by the DoD/FAA and will open in a separate window not controlled by AirNav.

 

 
 

Would you like to see your business listed on this page?

 If your business provides an interesting product or service to pilots, flight crews, aircraft, or users of the Flying E Airport, you should consider listing it here.  To start the listing process, click on the button below
 
Add a business
 

Other Pages about Flying E Airport

Update a link
 
Copyright © AirNav, LLC. All rights reserved. Privacy Policy  Contact